sensor_id;sensor_type;location;lat;lon;timestamp;P1;durP1;ratioP1;P2;durP2;ratioP2
58567;SDS011;44354;46.192;-1.076;2023-02-13T00:01:16;14.75;;;14.05;;
58567;SDS011;44354;46.192;-1.076;2023-02-13T00:03:48;15.20;;;14.40;;
58567;SDS011;44354;46.192;-1.076;2023-02-13T00:06:14;15.80;;;15.00;;
58567;SDS011;44354;46.192;-1.076;2023-02-13T00:08:42;14.18;;;13.48;;
58567;SDS011;44354;46.192;-1.076;2023-02-13T00:11:07;22.90;;;20.92;;
58567;SDS011;44354;46.192;-1.076;2023-02-13T00:13:33;23.90;;;20.23;;
58567;SDS011;44354;46.192;-1.076;2023-02-13T00:16:00;19.30;;;18.00;;
58567;SDS011;44354;46.192;-1.076;2023-02-13T00:18:27;25.30;;;18.75;;
58567;SDS011;44354;46.192;-1.076;2023-02-13T00:23:50;15.73;;;14.93;;
58567;SDS011;44354;46.192;-1.076;2023-02-13T00:26:19;24.88;;;19.63;;
58567;SDS011;44354;46.192;-1.076;2023-02-13T00:28:50;19.08;;;17.77;;
58567;SDS011;44354;46.192;-1.076;2023-02-13T00:31:16;17.20;;;16.33;;
58567;SDS011;44354;46.192;-1.076;2023-02-13T00:33:43;15.65;;;14.85;;
58567;SDS011;44354;46.192;-1.076;2023-02-13T00:36:12;16.10;;;15.30;;
58567;SDS011;44354;46.192;-1.076;2023-02-13T00:38:40;14.98;;;14.15;;
58567;SDS011;44354;46.192;-1.076;2023-02-13T00:41:07;16.10;;;14.68;;
58567;SDS011;44354;46.192;-1.076;2023-02-13T00:43:34;15.48;;;14.68;;
58567;SDS011;44354;46.192;-1.076;2023-02-13T00:46:03;16.63;;;15.82;;
58567;SDS011;44354;46.192;-1.076;2023-02-13T00:48:30;39.42;;;31.77;;
58567;SDS011;44354;46.192;-1.076;2023-02-13T00:50:57;17.55;;;16.65;;
58567;SDS011;44354;46.192;-1.076;2023-02-13T00:53:24;18.00;;;17.10;;
58567;SDS011;44354;46.192;-1.076;2023-02-13T00:55:52;16.67;;;15.88;;
58567;SDS011;44354;46.192;-1.076;2023-02-13T00:58:19;17.60;;;16.70;;
58567;SDS011;44354;46.192;-1.076;2023-02-13T01:00:45;20.92;;;19.83;;
58567;SDS011;44354;46.192;-1.076;2023-02-13T01:03:14;17.88;;;16.98;;
58567;SDS011;44354;46.192;-1.076;2023-02-13T01:05:41;18.55;;;17.60;;
58567;SDS011;44354;46.192;-1.076;2023-02-13T01:08:08;18.23;;;17.33;;
58567;SDS011;44354;46.192;-1.076;2023-02-13T01:10:35;18.83;;;17.85;;
58567;SDS011;44354;46.192;-1.076;2023-02-13T01:13:02;18.92;;;17.92;;
58567;SDS011;44354;46.192;-1.076;2023-02-13T01:15:28;20.25;;;19.25;;
58567;SDS011;44354;46.192;-1.076;2023-02-13T01:17:54;18.67;;;17.70;;
58567;SDS011;44354;46.192;-1.076;2023-02-13T01:20:21;23.23;;;21.60;;
58567;SDS011;44354;46.192;-1.076;2023-02-13T01:22:52;24.10;;;22.67;;
58567;SDS011;44354;46.192;-1.076;2023-02-13T01:25:27;20.17;;;19.17;;
58567;SDS011;44354;46.192;-1.076;2023-02-13T01:27:53;21.58;;;20.42;;
58567;SDS011;44354;46.192;-1.076;2023-02-13T01:30:23;19.55;;;18.40;;
58567;SDS011;44354;46.192;-1.076;2023-02-13T01:32:52;22.23;;;21.02;;
58567;SDS011;44354;46.192;-1.076;2023-02-13T01:35:20;23.23;;;22.00;;
58567;SDS011;44354;46.192;-1.076;2023-02-13T01:37:46;22.60;;;21.42;;
58567;SDS011;44354;46.192;-1.076;2023-02-13T01:40:13;22.13;;;21.00;;
58567;SDS011;44354;46.192;-1.076;2023-02-13T01:42:39;25.58;;;24.23;;
58567;SDS011;44354;46.192;-1.076;2023-02-13T01:45:50;22.10;;;20.90;;
58567;SDS011;44354;46.192;-1.076;2023-02-13T01:48:16;24.08;;;22.67;;
58567;SDS011;44354;46.192;-1.076;2023-02-13T01:50:52;26.10;;;24.73;;
58567;SDS011;44354;46.192;-1.076;2023-02-13T01:53:31;36.50;;;34.30;;
58567;SDS011;44354;46.192;-1.076;2023-02-13T01:59:06;25.20;;;23.90;;
58567;SDS011;44354;46.192;-1.076;2023-02-13T02:01:35;22.77;;;21.58;;
58567;SDS011;44354;46.192;-1.076;2023-02-13T02:04:18;25.23;;;23.92;;
58567;SDS011;44354;46.192;-1.076;2023-02-13T02:06:52;23.77;;;22.52;;
58567;SDS011;44354;46.192;-1.076;2023-02-13T02:09:23;26.88;;;25.48;;
58567;SDS011;44354;46.192;-1.076;2023-02-13T02:12:05;29.67;;;28.02;;
58567;SDS011;44354;46.192;-1.076;2023-02-13T02:14:39;24.92;;;23.63;;
58567;SDS011;44354;46.192;-1.076;2023-02-13T02:17:05;27.25;;;25.85;;
58567;SDS011;44354;46.192;-1.076;2023-02-13T02:19:39;25.27;;;23.98;;
58567;SDS011;44354;46.192;-1.076;2023-02-13T02:36:35;27.42;;;25.92;;
58567;SDS011;44354;46.192;-1.076;2023-02-13T02:42:24;27.85;;;26.35;;
58567;SDS011;44354;46.192;-1.076;2023-02-13T02:58:32;50.28;;;47.13;;
58567;SDS011;44354;46.192;-1.076;2023-02-13T03:01:23;29.08;;;27.58;;
58567;SDS011;44354;46.192;-1.076;2023-02-13T03:04:17;30.30;;;28.65;;
58567;SDS011;44354;46.192;-1.076;2023-02-13T03:07:06;30.33;;;28.73;;
58567;SDS011;44354;46.192;-1.076;2023-02-13T03:09:35;27.90;;;26.45;;
58567;SDS011;44354;46.192;-1.076;2023-02-13T03:12:23;26.92;;;25.52;;
58567;SDS011;44354;46.192;-1.076;2023-02-13T03:15:12;29.00;;;27.50;;
58567;SDS011;44354;46.192;-1.076;2023-02-13T03:17:38;29.40;;;27.90;;
58567;SDS011;44354;46.192;-1.076;2023-02-13T03:23:11;27.30;;;25.90;;
58567;SDS011;44354;46.192;-1.076;2023-02-13T03:26:06;28.85;;;27.35;;
58567;SDS011;44354;46.192;-1.076;2023-02-13T03:28:51;28.98;;;27.48;;
58567;SDS011;44354;46.192;-1.076;2023-02-13T03:31:58;30.15;;;28.50;;
58567;SDS011;44354;46.192;-1.076;2023-02-13T03:37:26;28.98;;;27.48;;
58567;SDS011;44354;46.192;-1.076;2023-02-13T03:40:25;30.30;;;28.70;;
58567;SDS011;44354;46.192;-1.076;2023-02-13T03:43:07;26.15;;;24.77;;
58567;SDS011;44354;46.192;-1.076;2023-02-13T03:45:38;28.42;;;26.92;;
58567;SDS011;44354;46.192;-1.076;2023-02-13T03:48:18;28.85;;;27.35;;
58567;SDS011;44354;46.192;-1.076;2023-02-13T03:51:07;25.00;;;23.70;;
58567;SDS011;44354;46.192;-1.076;2023-02-13T03:53:35;27.00;;;25.60;;
58567;SDS011;44354;46.192;-1.076;2023-02-13T03:56:04;28.40;;;26.90;;
58567;SDS011;44354;46.192;-1.076;2023-02-13T03:58:51;31.30;;;29.70;;
58567;SDS011;44354;46.192;-1.076;2023-02-13T04:01:40;25.92;;;24.58;;
58567;SDS011;44354;46.192;-1.076;2023-02-13T04:06:56;26.43;;;25.03;;
58567;SDS011;44354;46.192;-1.076;2023-02-13T04:09:33;26.23;;;24.83;;
58567;SDS011;44354;46.192;-1.076;2023-02-13T04:12:06;27.88;;;26.42;;
58567;SDS011;44354;46.192;-1.076;2023-02-13T04:14:52;29.10;;;27.60;;
58567;SDS011;44354;46.192;-1.076;2023-02-13T04:18:01;29.13;;;27.63;;
58567;SDS011;44354;46.192;-1.076;2023-02-13T04:20:27;31.02;;;29.42;;
58567;SDS011;44354;46.192;-1.076;2023-02-13T04:22:55;27.17;;;25.77;;
58567;SDS011;44354;46.192;-1.076;2023-02-13T04:25:20;28.67;;;27.17;;
58567;SDS011;44354;46.192;-1.076;2023-02-13T04:27:46;28.85;;;27.35;;
58567;SDS011;44354;46.192;-1.076;2023-02-13T04:30:12;26.13;;;24.73;;
58567;SDS011;44354;46.192;-1.076;2023-02-13T04:32:38;26.42;;;25.02;;
58567;SDS011;44354;46.192;-1.076;2023-02-13T04:35:04;27.02;;;25.52;;
58567;SDS011;44354;46.192;-1.076;2023-02-13T04:37:30;27.23;;;25.80;;
58567;SDS011;44354;46.192;-1.076;2023-02-13T04:39:55;25.30;;;24.00;;
58567;SDS011;44354;46.192;-1.076;2023-02-13T04:42:21;27.45;;;26.05;;
58567;SDS011;44354;46.192;-1.076;2023-02-13T04:44:47;28.48;;;26.98;;
58567;SDS011;44354;46.192;-1.076;2023-02-13T04:47:12;27.65;;;26.23;;
58567;SDS011;44354;46.192;-1.076;2023-02-13T04:49:38;28.35;;;26.85;;
58567;SDS011;44354;46.192;-1.076;2023-02-13T04:52:04;29.80;;;28.23;;
58567;SDS011;44354;46.192;-1.076;2023-02-13T04:54:30;27.33;;;25.92;;
58567;SDS011;44354;46.192;-1.076;2023-02-13T04:56:56;29.20;;;27.70;;
58567;SDS011;44354;46.192;-1.076;2023-02-13T04:59:22;28.70;;;27.20;;
58567;SDS011;44354;46.192;-1.076;2023-02-13T05:01:47;30.08;;;28.25;;
58567;SDS011;44354;46.192;-1.076;2023-02-13T05:04:13;27.80;;;26.30;;
58567;SDS011;44354;46.192;-1.076;2023-02-13T05:06:40;28.58;;;27.08;;
58567;SDS011;44354;46.192;-1.076;2023-02-13T05:09:06;26.90;;;25.50;;
58567;SDS011;44354;46.192;-1.076;2023-02-13T05:11:32;26.98;;;25.58;;
58567;SDS011;44354;46.192;-1.076;2023-02-13T05:13:57;26.20;;;24.80;;
58567;SDS011;44354;46.192;-1.076;2023-02-13T05:16:23;27.38;;;25.52;;
58567;SDS011;44354;46.192;-1.076;2023-02-13T05:18:49;28.60;;;27.10;;
58567;SDS011;44354;46.192;-1.076;2023-02-13T05:21:18;27.02;;;25.52;;
58567;SDS011;44354;46.192;-1.076;2023-02-13T05:24:03;28.17;;;26.67;;
58567;SDS011;44354;46.192;-1.076;2023-02-13T05:26:29;26.35;;;24.95;;
58567;SDS011;44354;46.192;-1.076;2023-02-13T05:28:55;27.33;;;25.92;;
58567;SDS011;44354;46.192;-1.076;2023-02-13T05:31:40;28.42;;;26.92;;
58567;SDS011;44354;46.192;-1.076;2023-02-13T05:34:05;28.00;;;26.52;;
58567;SDS011;44354;46.192;-1.076;2023-02-13T05:36:32;28.70;;;27.20;;
58567;SDS011;44354;46.192;-1.076;2023-02-13T05:38:58;27.45;;;26.05;;
58567;SDS011;44354;46.192;-1.076;2023-02-13T05:41:24;26.20;;;24.80;;
58567;SDS011;44354;46.192;-1.076;2023-02-13T05:43:50;26.90;;;25.50;;
58567;SDS011;44354;46.192;-1.076;2023-02-13T05:46:17;26.00;;;24.67;;
58567;SDS011;44354;46.192;-1.076;2023-02-13T05:48:42;27.67;;;26.25;;
58567;SDS011;44354;46.192;-1.076;2023-02-13T05:51:08;26.42;;;25.02;;
58567;SDS011;44354;46.192;-1.076;2023-02-13T05:53:35;26.88;;;25.48;;
58567;SDS011;44354;46.192;-1.076;2023-02-13T05:56:01;27.45;;;26.05;;
58567;SDS011;44354;46.192;-1.076;2023-02-13T05:58:28;28.30;;;26.80;;
58567;SDS011;44354;46.192;-1.076;2023-02-13T06:00:55;27.80;;;26.33;;
58567;SDS011;44354;46.192;-1.076;2023-02-13T06:03:36;29.55;;;27.90;;
58567;SDS011;44354;46.192;-1.076;2023-02-13T06:06:11;28.02;;;26.55;;
58567;SDS011;44354;46.192;-1.076;2023-02-13T06:08:57;27.63;;;26.23;;
58567;SDS011;44354;46.192;-1.076;2023-02-13T06:11:23;27.75;;;26.30;;
58567;SDS011;44354;46.192;-1.076;2023-02-13T06:13:48;29.10;;;27.60;;
58567;SDS011;44354;46.192;-1.076;2023-02-13T06:16:14;29.48;;;27.95;;
58567;SDS011;44354;46.192;-1.076;2023-02-13T06:18:40;29.23;;;27.73;;
58567;SDS011;44354;46.192;-1.076;2023-02-13T06:21:06;29.75;;;28.20;;
58567;SDS011;44354;46.192;-1.076;2023-02-13T06:23:32;28.05;;;26.55;;
58567;SDS011;44354;46.192;-1.076;2023-02-13T06:26:02;25.13;;;23.83;;
58567;SDS011;44354;46.192;-1.076;2023-02-13T06:28:29;25.77;;;24.45;;
58567;SDS011;44354;46.192;-1.076;2023-02-13T06:30:55;28.98;;;27.40;;
58567;SDS011;44354;46.192;-1.076;2023-02-13T06:33:20;27.35;;;25.88;;
58567;SDS011;44354;46.192;-1.076;2023-02-13T06:35:46;29.33;;;27.73;;
58567;SDS011;44354;46.192;-1.076;2023-02-13T06:38:12;26.52;;;25.13;;
58567;SDS011;44354;46.192;-1.076;2023-02-13T06:40:37;30.83;;;28.90;;
58567;SDS011;44354;46.192;-1.076;2023-02-13T06:43:03;26.85;;;25.45;;
58567;SDS011;44354;46.192;-1.076;2023-02-13T06:45:29;26.67;;;25.27;;
58567;SDS011;44354;46.192;-1.076;2023-02-13T06:47:56;28.02;;;26.52;;
58567;SDS011;44354;46.192;-1.076;2023-02-13T06:50:27;29.17;;;27.65;;
58567;SDS011;44354;46.192;-1.076;2023-02-13T06:52:54;24.75;;;23.45;;
58567;SDS011;44354;46.192;-1.076;2023-02-13T06:55:22;26.98;;;25.55;;
58567;SDS011;44354;46.192;-1.076;2023-02-13T06:57:54;26.95;;;25.55;;
58567;SDS011;44354;46.192;-1.076;2023-02-13T07:00:25;32.58;;;29.70;;
58567;SDS011;44354;46.192;-1.076;2023-02-13T07:02:52;27.77;;;26.30;;
58567;SDS011;44354;46.192;-1.076;2023-02-13T07:05:17;26.38;;;24.88;;
58567;SDS011;44354;46.192;-1.076;2023-02-13T07:07:43;27.92;;;26.48;;
58567;SDS011;44354;46.192;-1.076;2023-02-13T07:10:10;27.75;;;26.30;;
58567;SDS011;44354;46.192;-1.076;2023-02-13T07:12:37;25.90;;;24.48;;
58567;SDS011;44354;46.192;-1.076;2023-02-13T07:15:03;27.40;;;26.00;;
58567;SDS011;44354;46.192;-1.076;2023-02-13T07:17:29;26.13;;;24.77;;
58567;SDS011;44354;46.192;-1.076;2023-02-13T07:19:56;28.30;;;26.80;;
58567;SDS011;44354;46.192;-1.076;2023-02-13T07:22:29;26.83;;;25.42;;
58567;SDS011;44354;46.192;-1.076;2023-02-13T07:46:45;28.50;;;26.90;;
58567;SDS011;44354;46.192;-1.076;2023-02-13T07:59:34;31.50;;;29.55;;
58567;SDS011;44354;46.192;-1.076;2023-02-13T08:02:00;24.73;;;23.42;;
58567;SDS011;44354;46.192;-1.076;2023-02-13T08:04:26;23.42;;;22.23;;
58567;SDS011;44354;46.192;-1.076;2023-02-13T08:06:51;27.17;;;25.77;;
58567;SDS011;44354;46.192;-1.076;2023-02-13T08:09:18;27.83;;;26.35;;
58567;SDS011;44354;46.192;-1.076;2023-02-13T08:12:05;26.70;;;25.33;;
58567;SDS011;44354;46.192;-1.076;2023-02-13T08:14:32;28.27;;;26.25;;
58567;SDS011;44354;46.192;-1.076;2023-02-13T08:16:58;24.88;;;23.58;;
58567;SDS011;44354;46.192;-1.076;2023-02-13T08:19:25;28.42;;;26.92;;
58567;SDS011;44354;46.192;-1.076;2023-02-13T08:21:51;26.38;;;24.98;;
58567;SDS011;44354;46.192;-1.076;2023-02-13T08:24:17;24.02;;;22.80;;
58567;SDS011;44354;46.192;-1.076;2023-02-13T08:26:43;36.95;;;34.75;;
58567;SDS011;44354;46.192;-1.076;2023-02-13T08:29:08;26.05;;;24.70;;
58567;SDS011;44354;46.192;-1.076;2023-02-13T08:31:35;26.60;;;25.15;;
58567;SDS011;44354;46.192;-1.076;2023-02-13T08:34:01;24.45;;;23.15;;
58567;SDS011;44354;46.192;-1.076;2023-02-13T08:36:27;24.27;;;23.00;;
58567;SDS011;44354;46.192;-1.076;2023-02-13T08:38:53;23.65;;;22.45;;
58567;SDS011;44354;46.192;-1.076;2023-02-13T08:41:19;22.80;;;21.60;;
58567;SDS011;44354;46.192;-1.076;2023-02-13T08:43:49;23.30;;;22.10;;
58567;SDS011;44354;46.192;-1.076;2023-02-13T08:46:15;25.75;;;24.35;;
58567;SDS011;44354;46.192;-1.076;2023-02-13T08:48:41;24.90;;;23.60;;
58567;SDS011;44354;46.192;-1.076;2023-02-13T08:51:08;24.30;;;23.00;;
58567;SDS011;44354;46.192;-1.076;2023-02-13T08:53:36;23.00;;;21.80;;
58567;SDS011;44354;46.192;-1.076;2023-02-13T08:56:02;29.58;;;27.95;;
58567;SDS011;44354;46.192;-1.076;2023-02-13T08:58:29;23.85;;;22.58;;
58567;SDS011;44354;46.192;-1.076;2023-02-13T09:00:55;21.95;;;20.85;;
58567;SDS011;44354;46.192;-1.076;2023-02-13T09:03:21;19.52;;;18.52;;
58567;SDS011;44354;46.192;-1.076;2023-02-13T09:05:46;21.80;;;20.70;;
58567;SDS011;44354;46.192;-1.076;2023-02-13T09:08:12;22.40;;;21.20;;
58567;SDS011;44354;46.192;-1.076;2023-02-13T09:10:38;20.85;;;19.75;;
58567;SDS011;44354;46.192;-1.076;2023-02-13T09:13:05;21.95;;;20.85;;
58567;SDS011;44354;46.192;-1.076;2023-02-13T09:15:31;20.35;;;19.35;;
58567;SDS011;44354;46.192;-1.076;2023-02-13T09:17:57;21.77;;;20.52;;
58567;SDS011;44354;46.192;-1.076;2023-02-13T09:20:23;18.08;;;17.17;;
58567;SDS011;44354;46.192;-1.076;2023-02-13T09:22:49;18.90;;;17.90;;
58567;SDS011;44354;46.192;-1.076;2023-02-13T09:25:15;24.85;;;23.40;;
58567;SDS011;44354;46.192;-1.076;2023-02-13T09:27:41;20.65;;;19.55;;
58567;SDS011;44354;46.192;-1.076;2023-02-13T09:30:08;18.88;;;17.88;;
58567;SDS011;44354;46.192;-1.076;2023-02-13T09:32:35;18.00;;;17.10;;
58567;SDS011;44354;46.192;-1.076;2023-02-13T09:35:02;17.60;;;16.70;;
58567;SDS011;44354;46.192;-1.076;2023-02-13T09:37:28;16.65;;;15.82;;
58567;SDS011;44354;46.192;-1.076;2023-02-13T09:39:54;17.58;;;16.67;;
58567;SDS011;44354;46.192;-1.076;2023-02-13T09:42:29;23.50;;;18.30;;
58567;SDS011;44354;46.192;-1.076;2023-02-13T09:44:58;19.08;;;18.08;;
58567;SDS011;44354;46.192;-1.076;2023-02-13T09:50:19;16.45;;;15.65;;
58567;SDS011;44354;46.192;-1.076;2023-02-13T09:52:49;15.15;;;14.35;;
58567;SDS011;44354;46.192;-1.076;2023-02-13T09:55:30;14.70;;;14.00;;
58567;SDS011;44354;46.192;-1.076;2023-02-13T10:01:00;16.98;;;15.75;;
58567;SDS011;44354;46.192;-1.076;2023-02-13T10:03:33;15.07;;;14.27;;
58567;SDS011;44354;46.192;-1.076;2023-02-13T10:06:07;13.98;;;13.27;;
58567;SDS011;44354;46.192;-1.076;2023-02-13T10:11:27;14.25;;;13.38;;
58567;SDS011;44354;46.192;-1.076;2023-02-13T10:14:26;13.13;;;12.45;;
58567;SDS011;44354;46.192;-1.076;2023-02-13T10:17:14;13.02;;;12.35;;
58567;SDS011;44354;46.192;-1.076;2023-02-13T10:19:45;13.63;;;12.82;;
58567;SDS011;44354;46.192;-1.076;2023-02-13T10:22:24;13.50;;;12.80;;
58567;SDS011;44354;46.192;-1.076;2023-02-13T10:27:54;16.10;;;14.82;;
58567;SDS011;44354;46.192;-1.076;2023-02-13T10:30:32;12.88;;;12.18;;
58567;SDS011;44354;46.192;-1.076;2023-02-13T10:38:16;12.90;;;12.20;;
58567;SDS011;44354;46.192;-1.076;2023-02-13T10:46:49;10.43;;;9.93;;
58567;SDS011;44354;46.192;-1.076;2023-02-13T10:49:29;10.73;;;10.13;;
58567;SDS011;44354;46.192;-1.076;2023-02-13T11:02:55;11.93;;;11.32;;
58567;SDS011;44354;46.192;-1.076;2023-02-13T11:05:23;11.70;;;11.02;;
58567;SDS011;44354;46.192;-1.076;2023-02-13T11:07:54;11.25;;;10.65;;
58567;SDS011;44354;46.192;-1.076;2023-02-13T11:10:23;11.73;;;11.05;;
58567;SDS011;44354;46.192;-1.076;2023-02-13T11:12:50;10.98;;;10.27;;
58567;SDS011;44354;46.192;-1.076;2023-02-13T11:15:35;12.70;;;12.00;;
58567;SDS011;44354;46.192;-1.076;2023-02-13T11:18:20;11.20;;;10.60;;
58567;SDS011;44354;46.192;-1.076;2023-02-13T11:20:47;10.73;;;9.77;;
58567;SDS011;44354;46.192;-1.076;2023-02-13T11:25:59;11.57;;;10.90;;
58567;SDS011;44354;46.192;-1.076;2023-02-13T11:28:29;9.13;;;8.73;;
58567;SDS011;44354;46.192;-1.076;2023-02-13T11:31:08;11.93;;;11.13;;
58567;SDS011;44354;46.192;-1.076;2023-02-13T11:33:35;10.95;;;10.35;;
58567;SDS011;44354;46.192;-1.076;2023-02-13T11:36:06;11.93;;;11.30;;
58567;SDS011;44354;46.192;-1.076;2023-02-13T11:38:33;10.55;;;9.95;;
58567;SDS011;44354;46.192;-1.076;2023-02-13T11:41:09;9.63;;;9.13;;
58567;SDS011;44354;46.192;-1.076;2023-02-13T11:46:20;9.57;;;9.07;;
58567;SDS011;44354;46.192;-1.076;2023-02-13T11:56:50;9.00;;;8.50;;
58567;SDS011;44354;46.192;-1.076;2023-02-13T11:59:20;9.98;;;9.48;;
58567;SDS011;44354;46.192;-1.076;2023-02-13T12:01:47;9.52;;;9.02;;
58567;SDS011;44354;46.192;-1.076;2023-02-13T12:04:27;7.75;;;7.35;;
58567;SDS011;44354;46.192;-1.076;2023-02-13T12:07:00;11.10;;;10.18;;
58567;SDS011;44354;46.192;-1.076;2023-02-13T12:09:28;11.23;;;10.50;;
58567;SDS011;44354;46.192;-1.076;2023-02-13T12:11:59;8.23;;;7.82;;
58567;SDS011;44354;46.192;-1.076;2023-02-13T12:14:32;10.25;;;9.60;;
58567;SDS011;44354;46.192;-1.076;2023-02-13T12:17:16;10.07;;;9.57;;
58567;SDS011;44354;46.192;-1.076;2023-02-13T12:19:46;8.00;;;7.60;;
58567;SDS011;44354;46.192;-1.076;2023-02-13T12:22:29;8.20;;;7.80;;
58567;SDS011;44354;46.192;-1.076;2023-02-13T12:36:20;8.02;;;7.63;;
58567;SDS011;44354;46.192;-1.076;2023-02-13T12:39:04;7.55;;;7.15;;
58567;SDS011;44354;46.192;-1.076;2023-02-13T12:41:40;9.07;;;8.60;;
58567;SDS011;44354;46.192;-1.076;2023-02-13T12:47:09;8.00;;;7.60;;
58567;SDS011;44354;46.192;-1.076;2023-02-13T12:49:57;9.65;;;9.15;;
58567;SDS011;44354;46.192;-1.076;2023-02-13T12:53:10;8.70;;;8.20;;
58567;SDS011;44354;46.192;-1.076;2023-02-13T12:55:58;8.10;;;7.70;;
58567;SDS011;44354;46.192;-1.076;2023-02-13T12:58:49;9.35;;;8.85;;
58567;SDS011;44354;46.192;-1.076;2023-02-13T13:16:23;8.20;;;7.80;;
58567;SDS011;44354;46.192;-1.076;2023-02-13T13:27:08;7.97;;;7.57;;
58567;SDS011;44354;46.192;-1.076;2023-02-13T13:29:56;8.88;;;8.38;;
58567;SDS011;44354;46.192;-1.076;2023-02-13T13:32:25;8.48;;;8.02;;
58567;SDS011;44354;46.192;-1.076;2023-02-13T13:34:53;7.50;;;7.13;;
58567;SDS011;44354;46.192;-1.076;2023-02-13T13:42:58;6.85;;;6.55;;
58567;SDS011;44354;46.192;-1.076;2023-02-13T13:45:40;6.95;;;6.65;;
58567;SDS011;44354;46.192;-1.076;2023-02-13T13:51:11;7.05;;;6.75;;
58567;SDS011;44354;46.192;-1.076;2023-02-13T13:56:24;7.63;;;7.22;;
58567;SDS011;44354;46.192;-1.076;2023-02-13T13:58:50;8.20;;;7.80;;
58567;SDS011;44354;46.192;-1.076;2023-02-13T14:03:47;6.82;;;6.53;;
58567;SDS011;44354;46.192;-1.076;2023-02-13T14:06:18;7.38;;;7.05;;
58567;SDS011;44354;46.192;-1.076;2023-02-13T14:16:54;6.55;;;6.25;;
58567;SDS011;44354;46.192;-1.076;2023-02-13T14:19:28;11.10;;;9.27;;
58567;SDS011;44354;46.192;-1.076;2023-02-13T14:25:03;6.05;;;5.75;;
58567;SDS011;44354;46.192;-1.076;2023-02-13T14:29:56;6.47;;;6.18;;
58567;SDS011;44354;46.192;-1.076;2023-02-13T14:32:33;7.18;;;6.88;;
58567;SDS011;44354;46.192;-1.076;2023-02-13T14:35:05;6.07;;;5.78;;
58567;SDS011;44354;46.192;-1.076;2023-02-13T14:37:50;6.93;;;6.63;;
58567;SDS011;44354;46.192;-1.076;2023-02-13T14:42:45;6.68;;;6.38;;
58567;SDS011;44354;46.192;-1.076;2023-02-13T14:45:16;7.50;;;7.15;;
58567;SDS011;44354;46.192;-1.076;2023-02-13T14:47:45;6.18;;;5.88;;
58567;SDS011;44354;46.192;-1.076;2023-02-13T14:53:23;6.32;;;6.03;;
58567;SDS011;44354;46.192;-1.076;2023-02-13T14:56:14;7.72;;;7.32;;
58567;SDS011;44354;46.192;-1.076;2023-02-13T14:58:49;7.43;;;7.07;;
58567;SDS011;44354;46.192;-1.076;2023-02-13T15:01:28;8.57;;;8.07;;
58567;SDS011;44354;46.192;-1.076;2023-02-13T15:04:43;6.65;;;6.35;;
58567;SDS011;44354;46.192;-1.076;2023-02-13T15:06:50;7.05;;;6.75;;
58567;SDS011;44354;46.192;-1.076;2023-02-13T15:09:33;7.20;;;6.90;;
58567;SDS011;44354;46.192;-1.076;2023-02-13T15:12:03;7.32;;;7.03;;
58567;SDS011;44354;46.192;-1.076;2023-02-13T15:14:47;6.88;;;6.57;;
58567;SDS011;44354;46.192;-1.076;2023-02-13T15:20:07;6.70;;;6.40;;
58567;SDS011;44354;46.192;-1.076;2023-02-13T15:22:47;7.10;;;6.80;;
58567;SDS011;44354;46.192;-1.076;2023-02-13T15:25:21;7.95;;;7.55;;
58567;SDS011;44354;46.192;-1.076;2023-02-13T15:27:50;6.82;;;6.53;;
58567;SDS011;44354;46.192;-1.076;2023-02-13T15:33:00;7.85;;;7.45;;
58567;SDS011;44354;46.192;-1.076;2023-02-13T15:35:29;7.13;;;6.82;;
58567;SDS011;44354;46.192;-1.076;2023-02-13T15:37:57;7.78;;;7.38;;
58567;SDS011;44354;46.192;-1.076;2023-02-13T15:40:29;7.20;;;6.90;;
58567;SDS011;44354;46.192;-1.076;2023-02-13T15:43:04;6.88;;;6.57;;
58567;SDS011;44354;46.192;-1.076;2023-02-13T15:45:47;6.40;;;6.10;;
58567;SDS011;44354;46.192;-1.076;2023-02-13T15:48:16;7.57;;;7.20;;
58567;SDS011;44354;46.192;-1.076;2023-02-13T15:50:42;5.82;;;5.53;;
58567;SDS011;44354;46.192;-1.076;2023-02-13T15:53:12;6.35;;;6.05;;
58567;SDS011;44354;46.192;-1.076;2023-02-13T15:55:40;7.03;;;6.72;;
58567;SDS011;44354;46.192;-1.076;2023-02-13T15:58:10;7.75;;;7.35;;
58567;SDS011;44354;46.192;-1.076;2023-02-13T16:00:39;6.68;;;6.38;;
58567;SDS011;44354;46.192;-1.076;2023-02-13T16:03:07;7.25;;;6.95;;
58567;SDS011;44354;46.192;-1.076;2023-02-13T16:05:40;7.00;;;6.70;;
58567;SDS011;44354;46.192;-1.076;2023-02-13T16:08:24;6.63;;;6.32;;
58567;SDS011;44354;46.192;-1.076;2023-02-13T16:13:49;7.80;;;7.40;;
58567;SDS011;44354;46.192;-1.076;2023-02-13T16:16:45;6.68;;;6.38;;
58567;SDS011;44354;46.192;-1.076;2023-02-13T16:24:52;6.43;;;6.13;;
58567;SDS011;44354;46.192;-1.076;2023-02-13T16:27:20;6.60;;;6.30;;
58567;SDS011;44354;46.192;-1.076;2023-02-13T16:29:53;6.40;;;6.10;;
58567;SDS011;44354;46.192;-1.076;2023-02-13T16:32:24;7.25;;;6.95;;
58567;SDS011;44354;46.192;-1.076;2023-02-13T16:34:55;6.60;;;6.30;;
58567;SDS011;44354;46.192;-1.076;2023-02-13T16:37:46;6.55;;;6.25;;
58567;SDS011;44354;46.192;-1.076;2023-02-13T16:51:12;6.38;;;6.07;;
58567;SDS011;44354;46.192;-1.076;2023-02-13T16:53:39;6.85;;;6.55;;
58567;SDS011;44354;46.192;-1.076;2023-02-13T16:56:06;6.53;;;6.22;;
58567;SDS011;44354;46.192;-1.076;2023-02-13T16:58:33;6.80;;;6.50;;
58567;SDS011;44354;46.192;-1.076;2023-02-13T17:00:59;6.65;;;6.35;;
58567;SDS011;44354;46.192;-1.076;2023-02-13T17:03:27;6.60;;;6.30;;
58567;SDS011;44354;46.192;-1.076;2023-02-13T17:05:55;6.28;;;5.97;;
58567;SDS011;44354;46.192;-1.076;2023-02-13T17:08:26;6.82;;;6.53;;
58567;SDS011;44354;46.192;-1.076;2023-02-13T17:11:03;6.38;;;6.07;;
58567;SDS011;44354;46.192;-1.076;2023-02-13T17:13:30;6.78;;;6.47;;
58567;SDS011;44354;46.192;-1.076;2023-02-13T17:15:56;5.70;;;5.40;;
58567;SDS011;44354;46.192;-1.076;2023-02-13T17:18:23;6.47;;;6.18;;
58567;SDS011;44354;46.192;-1.076;2023-02-13T17:20:48;6.05;;;5.75;;
58567;SDS011;44354;46.192;-1.076;2023-02-13T17:23:15;6.18;;;5.88;;
58567;SDS011;44354;46.192;-1.076;2023-02-13T17:25:42;5.90;;;5.60;;
58567;SDS011;44354;46.192;-1.076;2023-02-13T17:28:14;7.05;;;6.75;;
58567;SDS011;44354;46.192;-1.076;2023-02-13T17:30:41;6.43;;;6.13;;
58567;SDS011;44354;46.192;-1.076;2023-02-13T17:33:12;6.35;;;6.05;;
58567;SDS011;44354;46.192;-1.076;2023-02-13T17:35:46;6.80;;;6.50;;
58567;SDS011;44354;46.192;-1.076;2023-02-13T17:38:13;6.47;;;6.18;;
58567;SDS011;44354;46.192;-1.076;2023-02-13T17:40:40;7.28;;;6.95;;
58567;SDS011;44354;46.192;-1.076;2023-02-13T17:43:06;7.10;;;6.80;;
58567;SDS011;44354;46.192;-1.076;2023-02-13T17:45:35;6.90;;;6.60;;
58567;SDS011;44354;46.192;-1.076;2023-02-13T17:48:01;6.75;;;6.45;;
58567;SDS011;44354;46.192;-1.076;2023-02-13T17:50:28;7.47;;;7.10;;
58567;SDS011;44354;46.192;-1.076;2023-02-13T17:52:54;6.40;;;6.10;;
58567;SDS011;44354;46.192;-1.076;2023-02-13T17:55:22;6.32;;;6.03;;
58567;SDS011;44354;46.192;-1.076;2023-02-13T17:57:50;6.18;;;5.88;;
58567;SDS011;44354;46.192;-1.076;2023-02-13T18:00:17;6.53;;;6.22;;
58567;SDS011;44354;46.192;-1.076;2023-02-13T18:02:44;7.35;;;7.03;;
58567;SDS011;44354;46.192;-1.076;2023-02-13T18:05:14;6.88;;;6.57;;
58567;SDS011;44354;46.192;-1.076;2023-02-13T18:07:42;8.65;;;8.15;;
58567;SDS011;44354;46.192;-1.076;2023-02-13T18:10:19;7.00;;;6.70;;
58567;SDS011;44354;46.192;-1.076;2023-02-13T18:12:47;6.15;;;5.85;;
58567;SDS011;44354;46.192;-1.076;2023-02-13T18:15:15;7.55;;;7.18;;
58567;SDS011;44354;46.192;-1.076;2023-02-13T18:17:42;7.20;;;6.90;;
58567;SDS011;44354;46.192;-1.076;2023-02-13T18:20:09;6.00;;;5.70;;